Weather at Hämeenkyrö Airfield

Public forecast

Using degrees Celsius for public forecast. Weather courtesy of forecast.io.

Closest aviation weather report (METAR) to Hämeenkyrö Airfield

Closest report is Tampere-Pirkkala Airport, 22.5 nm (41.6 km) SE.

2024/06/16 03:20 (retrieved 14 minutes ago)

EFTP 160320Z AUTO 13006KT CAVOK 12/08 Q1015

Closest aviation forecast (TAF) to Hämeenkyrö Airfield

Forecast is more than 12 hours old.

Closest forecast is Quaqtaq Airport, 2,436.0 nm (4,511.6 km) NW.

2024/06/14 19:09 Ammendment (retrieved 1 day ago)

TAF AMD CYHA 141906Z 1419/1421 24007KT P6SM FEW007 SCT015 BKN050 TEMPO 1419/1421 BKN007 OVC015 RMK NXT FCST BY 151400Z